CheckWX is a tool to help pilots better visualize weather data.  It is not intended as a substitute for an official pre-flight weather briefing.

21:51:13 UTC

KCEC METAR
Jack Mc Namara Field Airport
Crescent City, California, USA
Current

55 mins ago

KCEC 052056Z AUTO 21010KT 10SM CLR 15/08 A2998 RMK AO2 SLP151 6//// T01500083 56007
Observed
Dec-5 @ 20:56 UTC
Wind
  • 210° at 10 KTS
Visibility
10 SM
Flight Rules
VFR
Cloud Levels
  • Clear skies
Temperature
15°C / 59°F
Dewpoint
C / 46°F
Humidity
63%
Altimeter
29.98" Hg
Pressure
1015.22 hPa
Previous

2 hours ago

KCEC 051956Z AUTO 16010KT 10SM CLR 15/08 A2998 RMK AO2 SLP152 T01500078
Observed
Dec-5 @ 19:56 UTC
Wind
  • 160° at 10 KTS
Visibility
10 SM
Flight Rules
VFR
Cloud Levels
  • Clear skies
Temperature
15°C / 59°F
Dewpoint
C / 46°F
Humidity
63%
Altimeter
29.98" Hg
Pressure
1015.22 hPa
Previous

3 hours ago

KCEC 051856Z AUTO CLR 15/08 A2999 RMK AO2 SLP157 T01500083 PWINO PNO $
Observed
Dec-5 @ 18:56 UTC
Visibility
Cloud Levels
  • Clear skies
Temperature
15°C / 59°F
Dewpoint
C / 46°F
Humidity
63%
Altimeter
29.99" Hg
Pressure
1015.62 hPa